createdAt,value
2022-12-23T00:04:07.329Z,21.60
2022-12-23T00:09:09.780Z,23.60
2022-12-23T00:14:30.747Z,23.80
2022-12-23T00:19:33.146Z,13.93
2022-12-23T00:24:35.550Z,29.70
2022-12-23T00:29:37.972Z,25.42
2022-12-23T00:34:40.374Z,25.50
2022-12-23T00:40:06.325Z,20.98
2022-12-23T00:45:15.957Z,22.93
2022-12-23T00:50:18.517Z,22.55
2022-12-23T00:55:21.044Z,18.80
2022-12-23T01:00:43.709Z,23.13
2022-12-23T01:05:46.157Z,24.42
2022-12-23T01:10:48.591Z,26.93
2022-12-23T01:15:50.972Z,15.85
2022-12-23T01:20:53.436Z,15.35
2022-12-23T01:26:00.255Z,19.73
2022-12-23T01:31:04.413Z,11.02
2022-12-23T01:36:09.854Z,17.50
2022-12-23T01:41:39.913Z,22.17
2022-12-23T01:46:43.101Z,13.57
2022-12-23T01:51:45.512Z,21.60
2022-12-23T01:56:47.995Z,22.15
2022-12-23T02:02:09.085Z,22.40
2022-12-23T02:07:30.633Z,16.15
2022-12-23T02:12:42.800Z,22.65
2022-12-23T02:18:16.389Z,22.40
2022-12-23T02:23:52.767Z,19.15
2022-12-23T02:29:07.213Z,20.13
2022-12-23T02:34:19.746Z,21.08
2022-12-23T02:39:45.753Z,20.83
2022-12-23T02:45:32.652Z,17.10
2022-12-23T02:50:37.030Z,5.75
2022-12-23T02:55:41.156Z,19.17
2022-12-23T03:00:44.900Z,16.55
2022-12-23T03:05:48.813Z,19.52
2022-12-23T03:10:54.195Z,19.13
2022-12-23T03:16:30.036Z,10.68
2022-12-23T03:21:47.651Z,17.63
2022-12-23T03:27:01.256Z,16.33
2022-12-23T03:32:04.636Z,18.77
2022-12-23T03:37:10.343Z,21.60
2022-12-23T03:42:21.917Z,18.20
2022-12-23T03:47:35.491Z,13.30
2022-12-23T03:52:41.705Z,18.63
2022-12-23T03:58:16.403Z,18.50
2022-12-23T04:03:25.477Z,19.87
2022-12-23T04:08:35.047Z,21.17
2022-12-23T04:13:37.622Z,19.60
2022-12-23T04:18:40.031Z,16.13
2022-12-23T04:23:42.443Z,22.58
2022-12-23T04:28:44.898Z,21.67
2022-12-23T04:33:47.396Z,20.80
2022-12-23T04:38:49.815Z,18.00
2022-12-23T04:43:53.233Z,21.90
2022-12-23T04:48:55.939Z,21.50
2022-12-23T04:53:58.450Z,21.40
2022-12-23T04:59:02.429Z,22.40
2022-12-23T05:04:05.096Z,20.90
2022-12-23T05:09:07.823Z,24.85
2022-12-23T05:14:13.692Z,27.60
2022-12-23T05:19:16.297Z,20.33
2022-12-23T05:24:18.786Z,20.13
2022-12-23T05:29:21.235Z,21.40
2022-12-23T05:34:23.814Z,20.50
2022-12-23T05:39:26.282Z,25.38
2022-12-23T05:44:28.754Z,25.03
2022-12-23T05:49:31.154Z,24.30
2022-12-23T05:54:33.594Z,24.80
2022-12-23T05:59:36.108Z,22.90
2022-12-23T06:04:38.565Z,24.48
2022-12-23T06:09:41.347Z,33.43
2022-12-23T06:14:43.815Z,22.33
2022-12-23T06:19:47.508Z,25.10
2022-12-23T06:24:51.057Z,21.40
2022-12-23T06:29:54.454Z,23.63
2022-12-23T06:34:56.874Z,14.67
2022-12-23T06:39:59.354Z,21.70
2022-12-23T06:45:01.796Z,19.93
2022-12-23T06:50:04.993Z,20.52
2022-12-23T06:55:07.783Z,16.48
2022-12-23T07:00:10.965Z,27.63
2022-12-23T07:05:13.406Z,32.90
2022-12-23T07:10:15.907Z,26.03
2022-12-23T07:15:18.438Z,22.95
2022-12-23T07:20:20.839Z,31.73
2022-12-23T07:25:23.783Z,31.93
2022-12-23T07:30:26.373Z,30.80
2022-12-23T07:35:29.020Z,32.80
2022-12-23T07:40:31.483Z,35.15
2022-12-23T07:45:34.133Z,40.25
2022-12-23T07:50:36.688Z,41.43
2022-12-23T07:55:39.143Z,31.33
2022-12-23T08:00:41.663Z,33.37
2022-12-23T08:05:44.167Z,27.95
2022-12-23T08:10:48.494Z,33.33
2022-12-23T08:15:55.964Z,24.47
2022-12-23T08:21:13.206Z,34.85
2022-12-23T08:26:18.808Z,33.43
2022-12-23T08:31:29.134Z,33.08
2022-12-23T08:36:33.704Z,31.17
2022-12-23T08:41:42.227Z,26.67
2022-12-23T08:46:44.905Z,24.73
2022-12-23T08:51:47.784Z,26.87
2022-12-23T08:56:50.718Z,26.90
2022-12-23T09:01:53.282Z,35.75
2022-12-23T09:06:55.951Z,24.73
2022-12-23T09:11:58.367Z,24.58
2022-12-23T09:17:00.807Z,28.43
2022-12-23T09:22:03.229Z,27.75
2022-12-23T09:27:05.742Z,25.65
2022-12-23T09:32:08.141Z,25.47
2022-12-23T09:37:12.964Z,31.27
2022-12-23T09:42:24.431Z,28.67
2022-12-23T09:47:28.592Z,28.35
2022-12-23T09:53:00.341Z,28.40
2022-12-23T09:58:08.664Z,26.47
2022-12-23T10:03:28.552Z,22.45
2022-12-23T10:08:36.856Z,24.20
2022-12-23T10:13:45.916Z,20.48
2022-12-23T10:19:07.278Z,21.85
2022-12-23T10:24:37.479Z,18.43
2022-12-23T10:29:40.104Z,16.23
2022-12-23T10:35:03.935Z,18.10
2022-12-23T10:40:12.226Z,17.98
2022-12-23T10:45:23.894Z,19.08
2022-12-23T10:50:46.194Z,15.97
2022-12-23T10:55:49.800Z,19.25
2022-12-23T11:00:55.779Z,18.77
2022-12-23T11:05:59.043Z,18.83
2022-12-23T11:11:01.657Z,20.63
2022-12-23T11:16:28.036Z,16.87
2022-12-23T11:21:32.081Z,17.13
2022-12-23T11:26:34.720Z,16.13
2022-12-23T11:31:37.752Z,17.83
2022-12-23T11:36:40.292Z,14.63
2022-12-23T11:41:49.195Z,18.90
2022-12-23T11:46:52.004Z,20.73
2022-12-23T11:52:11.548Z,20.92
2022-12-23T11:57:21.560Z,20.03
2022-12-23T12:02:30.887Z,16.90
2022-12-23T12:07:34.204Z,16.13
2022-12-23T12:12:36.930Z,12.93
2022-12-23T12:17:44.339Z,12.82
2022-12-23T12:22:54.388Z,12.70
2022-12-23T12:28:15.555Z,17.23
2022-12-23T12:33:40.984Z,12.30
2022-12-23T12:38:47.738Z,12.87
2022-12-23T12:43:57.139Z,14.63
2022-12-23T12:49:27.152Z,13.80
2022-12-23T12:54:38.706Z,16.38
2022-12-23T12:59:42.143Z,13.27
2022-12-23T13:05:06.345Z,12.70
2022-12-23T13:10:20.342Z,13.07
2022-12-23T13:15:41.659Z,14.70
2022-12-23T13:20:47.331Z,14.00
2022-12-23T13:26:00.550Z,15.32
2022-12-23T13:31:24.383Z,16.17
2022-12-23T13:36:44.808Z,14.68
2022-12-23T13:41:50.761Z,14.00
2022-12-23T13:47:12.526Z,18.27
2022-12-23T13:52:28.764Z,22.88
2022-12-23T13:57:45.396Z,17.77
2022-12-23T14:03:00.168Z,19.63
2022-12-23T14:08:07.850Z,20.13
2022-12-23T14:13:14.635Z,20.73
2022-12-23T14:18:36.502Z,22.47
2022-12-23T14:24:00.817Z,21.45
2022-12-23T14:29:23.595Z,21.77
2022-12-23T14:34:29.623Z,25.80
2022-12-23T14:39:33.657Z,19.77
2022-12-23T14:44:39.231Z,21.43
2022-12-23T14:49:43.511Z,28.30
2022-12-23T14:55:00.376Z,32.50
2022-12-23T15:00:11.306Z,29.48
2022-12-23T15:05:14.079Z,26.52
2022-12-23T15:10:17.561Z,25.03
2022-12-23T15:15:26.422Z,23.08
2022-12-23T15:20:30.958Z,29.37
2022-12-23T15:25:41.724Z,22.48
2022-12-23T15:30:55.675Z,28.05
2022-12-23T15:36:02.830Z,26.33
2022-12-23T15:41:27.063Z,24.42
2022-12-23T15:46:31.801Z,23.20
2022-12-23T15:57:02.589Z,25.23
2022-12-23T16:03:00.569Z,14.90
2022-12-23T16:08:16.343Z,23.20
2022-12-23T16:13:20.711Z,17.63
2022-12-23T16:18:32.823Z,14.45
2022-12-23T16:23:37.054Z,15.25
2022-12-23T16:28:45.126Z,13.20
2022-12-23T16:34:00.369Z,15.05
2022-12-23T16:39:22.934Z,5.93
2022-12-23T16:44:27.764Z,18.23
2022-12-23T16:49:33.959Z,12.20
2022-12-23T16:54:36.771Z,15.47
2022-12-23T16:59:41.273Z,16.52
2022-12-23T17:04:44.121Z,20.60
2022-12-23T17:09:47.847Z,23.25
2022-12-23T17:14:51.431Z,24.45
2022-12-23T17:19:56.290Z,14.47
2022-12-23T17:24:58.746Z,16.65
2022-12-23T17:30:01.218Z,16.53
2022-12-23T17:35:03.767Z,22.83
2022-12-23T17:40:07.367Z,25.05
2022-12-23T17:45:24.220Z,25.23
2022-12-23T17:50:26.685Z,26.83
2022-12-23T17:55:29.424Z,31.33
2022-12-23T18:00:34.576Z,30.42
2022-12-23T18:05:37.343Z,30.90
2022-12-23T18:10:40.771Z,24.77
2022-12-23T18:15:44.037Z,26.73
2022-12-23T18:20:48.035Z,33.23
2022-12-23T18:25:50.577Z,43.17
2022-12-23T18:30:55.494Z,51.42
2022-12-23T18:36:00.377Z,48.83
2022-12-23T18:41:02.896Z,77.38
2022-12-23T18:46:05.589Z,27.70
2022-12-23T18:51:10.424Z,20.20
2022-12-23T18:56:14.688Z,22.60
2022-12-23T19:01:18.717Z,17.33
2022-12-23T19:06:23.744Z,19.55
2022-12-23T19:11:26.192Z,21.00
2022-12-23T19:16:28.740Z,19.50
2022-12-23T19:21:31.402Z,23.95
2022-12-23T19:26:39.264Z,20.77
2022-12-23T19:31:45.543Z,17.35
2022-12-23T19:36:50.580Z,15.63
2022-12-23T19:41:53.321Z,18.20
2022-12-23T19:46:55.789Z,11.35
2022-12-23T19:51:58.400Z,13.97
2022-12-23T19:57:02.096Z,12.88
2022-12-23T20:02:04.628Z,13.53
2022-12-23T20:07:07.422Z,12.15
2022-12-23T20:12:09.958Z,14.40
2022-12-23T20:17:19.627Z,13.53
2022-12-23T20:22:22.527Z,5.78
2022-12-23T20:27:28.003Z,6.83
2022-12-23T20:32:30.892Z,9.60
2022-12-23T20:37:33.330Z,9.50
2022-12-23T20:42:35.765Z,9.87
2022-12-23T20:47:38.665Z,14.40
2022-12-23T20:52:41.199Z,9.90
2022-12-23T20:57:45.873Z,9.55
2022-12-23T21:02:48.418Z,10.60
2022-12-23T21:07:50.955Z,11.67
2022-12-23T21:12:53.363Z,16.55
2022-12-23T21:17:55.986Z,14.60
2022-12-23T21:22:58.431Z,12.80
2022-12-23T21:28:01.299Z,14.00
2022-12-23T21:33:03.839Z,11.70
2022-12-23T21:38:06.282Z,11.32
2022-12-23T21:43:09.121Z,5.37
2022-12-23T21:48:11.565Z,10.68
2022-12-23T21:53:14.040Z,7.15
2022-12-23T21:58:16.507Z,6.57
2022-12-23T22:03:18.953Z,12.88
2022-12-23T22:08:22.128Z,13.37
2022-12-23T22:13:26.589Z,12.65
2022-12-23T22:18:29.214Z,16.65
2022-12-23T22:23:31.727Z,12.60
2022-12-23T22:28:36.025Z,14.68
2022-12-23T22:33:38.397Z,6.17
2022-12-23T22:38:41.794Z,16.52
2022-12-23T22:43:44.286Z,13.18
2022-12-23T22:48:46.873Z,20.20
2022-12-23T22:53:49.800Z,21.00
2022-12-23T22:58:53.565Z,11.77
2022-12-23T23:03:57.695Z,20.70
2022-12-23T23:09:01.152Z,20.83
2022-12-23T23:14:04.202Z,19.77
2022-12-23T23:19:09.130Z,15.40
2022-12-23T23:24:12.128Z,21.57
2022-12-23T23:29:14.635Z,21.98
2022-12-23T23:34:17.083Z,17.15
2022-12-23T23:39:19.526Z,18.30
2022-12-23T23:44:22.062Z,15.73
2022-12-23T23:49:24.574Z,12.37
2022-12-23T23:54:27.060Z,10.02
2022-12-23T23:59:29.828Z,14.77
